createdAt,value
2023-04-12T00:01:45.261Z,34.17
2023-04-12T00:04:14.407Z,34.33
2023-04-12T00:06:42.796Z,34.00
2023-04-12T00:09:10.746Z,32.10
2023-04-12T00:11:38.735Z,30.50
2023-04-12T00:14:06.622Z,32.30
2023-04-12T00:16:36.105Z,28.50
2023-04-12T00:19:06.624Z,33.47
2023-04-12T00:21:34.551Z,31.83
2023-04-12T00:24:02.531Z,30.30
2023-04-12T00:26:30.618Z,29.20
2023-04-12T00:28:58.575Z,28.10
2023-04-12T00:31:26.603Z,28.07
2023-04-12T00:33:55.175Z,27.47
2023-04-12T00:36:24.604Z,25.43
2023-04-12T00:38:52.570Z,25.83
2023-04-12T00:41:20.987Z,25.77
2023-04-12T00:43:49.775Z,26.73
2023-04-12T00:46:19.842Z,26.90
2023-04-12T00:48:48.677Z,26.77
2023-04-12T00:51:18.259Z,27.40
2023-04-12T00:53:47.965Z,24.33
2023-04-12T00:56:16.124Z,26.93
2023-04-12T00:58:44.172Z,26.50
2023-04-12T01:01:12.143Z,31.70
2023-04-12T01:03:43.422Z,28.47
2023-04-12T01:06:17.032Z,29.93
2023-04-12T01:08:55.227Z,30.23
2023-04-12T01:11:33.170Z,34.07
2023-04-12T01:14:11.228Z,32.00
2023-04-12T01:16:44.494Z,29.83
2023-04-12T01:19:46.146Z,31.60
2023-04-12T01:22:21.549Z,33.60
2023-04-12T01:25:04.771Z,31.60
2023-04-12T01:27:40.754Z,30.83
2023-04-12T01:30:12.144Z,32.63
2023-04-12T01:32:41.366Z,30.03
2023-04-12T01:35:11.593Z,30.13
2023-04-12T01:37:40.271Z,30.37
2023-04-12T01:40:10.083Z,29.00
2023-04-12T01:42:39.714Z,28.30
2023-04-12T01:45:08.868Z,29.67
2023-04-12T01:47:36.946Z,30.50
2023-04-12T01:50:17.581Z,29.20
2023-04-12T01:52:53.928Z,30.23
2023-04-12T01:55:24.856Z,29.57
2023-04-12T01:57:54.875Z,27.57
2023-04-12T02:00:24.604Z,26.93
2023-04-12T02:02:53.674Z,29.00
2023-04-12T02:05:22.422Z,28.30
2023-04-12T02:07:54.028Z,31.70
2023-04-12T02:10:29.388Z,31.57
2023-04-12T02:13:01.416Z,25.37
2023-04-12T02:15:30.175Z,26.83
2023-04-12T02:17:59.516Z,29.77
2023-04-12T02:20:28.071Z,27.83
2023-04-12T02:22:56.139Z,27.57
2023-04-12T02:25:24.285Z,31.63
2023-04-12T02:27:52.283Z,28.70
2023-04-12T02:30:23.032Z,31.43
2023-04-12T02:32:56.123Z,31.23
2023-04-12T02:35:28.568Z,30.40
2023-04-12T02:38:04.007Z,28.33
2023-04-12T02:40:32.035Z,30.60
2023-04-12T02:43:00.140Z,31.10
2023-04-12T02:45:29.767Z,31.23
2023-04-12T02:47:58.821Z,32.43
2023-04-12T02:50:30.489Z,29.07
2023-04-12T02:53:11.146Z,28.67
2023-04-12T02:55:40.580Z,32.93
2023-04-12T02:58:10.171Z,29.17
2023-04-12T03:00:46.719Z,27.70
2023-04-12T03:03:17.913Z,58.37
2023-04-12T03:05:48.209Z,37.13
2023-04-12T03:08:18.248Z,33.60
2023-04-12T03:10:53.989Z,29.77
2023-04-12T03:13:23.033Z,27.47
2023-04-12T03:15:58.089Z,33.73
2023-04-12T03:18:33.002Z,28.43
2023-04-12T03:21:02.461Z,31.10
2023-04-12T03:23:31.337Z,29.37
2023-04-12T03:26:09.944Z,28.47
2023-04-12T03:28:38.444Z,26.37
2023-04-12T03:31:10.600Z,29.37
2023-04-12T03:33:42.496Z,25.87
2023-04-12T03:36:21.520Z,27.03
2023-04-12T03:38:55.756Z,30.07
2023-04-12T03:41:24.702Z,27.37
2023-04-12T03:43:52.873Z,29.73
2023-04-12T03:46:22.709Z,30.13
2023-04-12T03:48:56.936Z,29.17
2023-04-12T03:51:27.062Z,31.50
2023-04-12T03:54:02.730Z,27.67
2023-04-12T03:56:35.619Z,27.33
2023-04-12T03:59:08.638Z,27.83
2023-04-12T04:01:39.855Z,27.70
2023-04-12T04:04:09.019Z,66.33
2023-04-12T04:06:37.517Z,31.17
2023-04-12T04:09:05.631Z,24.70
2023-04-12T04:11:37.756Z,30.30
2023-04-12T04:14:08.513Z,27.47
2023-04-12T04:16:36.949Z,26.13
2023-04-12T04:19:09.146Z,27.17
2023-04-12T04:21:37.241Z,24.67
2023-04-12T04:24:07.037Z,28.37
2023-04-12T04:26:39.468Z,27.53
2023-04-12T04:29:20.606Z,25.40
2023-04-12T04:31:48.718Z,27.17
2023-04-12T04:34:19.292Z,24.93
2023-04-12T04:36:49.106Z,25.43
2023-04-12T04:39:24.150Z,21.43
2023-04-12T04:41:55.089Z,25.40
2023-04-12T04:44:47.738Z,25.80
2023-04-12T04:47:16.894Z,24.13
2023-04-12T04:49:48.107Z,23.40
2023-04-12T04:52:25.620Z,24.53
2023-04-12T04:54:58.610Z,27.90
2023-04-12T04:57:32.555Z,24.97
2023-04-12T05:00:01.801Z,24.90
2023-04-12T05:02:31.637Z,26.20
2023-04-12T05:05:02.433Z,25.20
2023-04-12T05:07:32.852Z,28.73
2023-04-12T05:10:00.943Z,25.40
2023-04-12T05:12:31.353Z,25.17
2023-04-12T05:15:11.053Z,22.17
2023-04-12T05:17:41.062Z,31.50
2023-04-12T05:20:11.921Z,27.73
2023-04-12T05:22:40.793Z,25.60
2023-04-12T05:25:09.518Z,25.57
2023-04-12T05:27:43.817Z,26.07
2023-04-12T05:30:16.048Z,23.80
2023-04-12T05:32:45.367Z,25.33
2023-04-12T05:35:16.580Z,26.87
2023-04-12T05:37:45.769Z,26.33
2023-04-12T05:40:15.132Z,24.73
2023-04-12T05:42:43.995Z,27.23
2023-04-12T05:45:13.827Z,27.27
2023-04-12T05:47:43.961Z,30.27
2023-04-12T05:50:12.609Z,33.67
2023-04-12T05:52:42.379Z,34.40
2023-04-12T05:55:11.181Z,35.30
2023-04-12T05:57:45.766Z,39.77
2023-04-12T06:00:18.697Z,39.10
2023-04-12T06:02:50.700Z,35.03
2023-04-12T06:05:19.702Z,35.47
2023-04-12T06:07:49.243Z,43.33
2023-04-12T06:10:18.411Z,41.23
2023-04-12T06:12:50.536Z,38.20
2023-04-12T06:15:20.985Z,36.50
2023-04-12T06:17:53.603Z,36.80
2023-04-12T06:20:21.686Z,40.27
2023-04-12T06:22:51.221Z,40.93
2023-04-12T06:25:19.205Z,35.97
2023-04-12T06:27:48.990Z,35.37
2023-04-12T06:30:19.538Z,33.43
2023-04-12T06:32:56.591Z,35.60
2023-04-12T06:35:24.663Z,33.97
2023-04-12T06:37:54.297Z,31.17
2023-04-12T06:40:22.359Z,33.60
2023-04-12T06:42:50.619Z,29.90
2023-04-12T06:45:23.429Z,31.10
2023-04-12T06:47:51.593Z,37.13
2023-04-12T06:50:19.713Z,31.87
2023-04-12T06:52:48.747Z,31.03
2023-04-12T06:55:18.656Z,30.60
2023-04-12T06:57:46.587Z,28.60
2023-04-12T07:00:15.575Z,28.57
2023-04-12T07:02:43.717Z,32.87
2023-04-12T07:05:11.888Z,28.87
2023-04-12T07:07:39.853Z,29.43
2023-04-12T07:10:09.597Z,33.43
2023-04-12T07:12:38.887Z,32.37
2023-04-12T07:15:07.717Z,28.60
2023-04-12T07:17:35.711Z,28.97
2023-04-12T07:20:03.735Z,27.47
2023-04-12T07:22:31.725Z,29.20
2023-04-12T07:24:59.873Z,27.47
2023-04-12T07:27:27.826Z,29.80
2023-04-12T07:29:58.060Z,30.73
2023-04-12T07:32:26.101Z,27.93
2023-04-12T07:34:54.119Z,27.27
2023-04-12T07:37:22.110Z,30.63
2023-04-12T07:39:50.145Z,29.93
2023-04-12T07:42:18.474Z,29.43
2023-04-12T07:44:46.713Z,25.47
2023-04-12T07:47:16.179Z,27.00
2023-04-12T07:49:44.201Z,28.73
2023-04-12T07:52:12.164Z,28.60
2023-04-12T07:54:40.332Z,28.80
2023-04-12T07:57:09.750Z,26.37
2023-04-12T07:59:37.722Z,24.53
2023-04-12T08:02:06.294Z,26.33
2023-04-12T08:04:35.719Z,26.77
2023-04-12T08:07:03.653Z,31.63
2023-04-12T08:09:31.655Z,24.23
2023-04-12T08:11:59.746Z,25.53
2023-04-12T08:14:27.784Z,28.13
2023-04-12T08:16:55.772Z,29.57
2023-04-12T08:19:23.824Z,28.30
2023-04-12T08:21:53.661Z,33.17
2023-04-12T08:24:21.568Z,31.27
2023-04-12T08:26:49.506Z,54.87
2023-04-12T08:29:17.881Z,26.47
2023-04-12T08:31:46.434Z,27.47
2023-04-12T08:34:14.637Z,25.37
2023-04-12T08:36:42.609Z,28.27
2023-04-12T08:39:11.908Z,29.50
2023-04-12T08:41:40.758Z,26.33
2023-04-12T08:44:09.500Z,26.80
2023-04-12T08:46:37.795Z,25.23
2023-04-12T08:49:05.760Z,24.10
2023-04-12T08:51:34.820Z,26.60
2023-04-12T08:54:02.837Z,23.33
2023-04-12T08:56:33.361Z,24.67
2023-04-12T08:59:01.984Z,24.40
2023-04-12T09:01:30.480Z,27.97
2023-04-12T09:03:59.574Z,24.73
2023-04-12T09:06:27.867Z,21.93
2023-04-12T09:08:58.028Z,22.37
2023-04-12T09:11:27.202Z,24.50
2023-04-12T09:13:57.897Z,23.63
2023-04-12T09:16:37.315Z,25.07
2023-04-12T09:19:05.546Z,26.93
2023-04-12T09:21:34.714Z,22.60
2023-04-12T09:24:11.762Z,25.43
2023-04-12T09:26:41.514Z,26.20
2023-04-12T09:29:25.861Z,23.37
2023-04-12T09:31:58.371Z,22.97
2023-04-12T09:34:27.918Z,22.73
2023-04-12T09:36:56.228Z,22.43
2023-04-12T09:39:33.081Z,21.63
2023-04-12T09:42:18.071Z,24.23
2023-04-12T09:44:54.828Z,22.77
2023-04-12T09:47:23.047Z,21.07
2023-04-12T09:49:51.172Z,19.10
2023-04-12T09:52:19.490Z,28.03
2023-04-12T09:54:49.210Z,20.60
2023-04-12T09:57:19.063Z,18.00
2023-04-12T09:59:50.175Z,19.70
2023-04-12T10:02:22.439Z,18.80
2023-04-12T10:04:50.722Z,22.13
2023-04-12T10:07:19.677Z,19.27
2023-04-12T10:09:48.318Z,19.33
2023-04-12T10:12:17.332Z,20.30
2023-04-12T10:14:47.086Z,19.33
2023-04-12T10:17:15.662Z,21.00
2023-04-12T10:19:46.140Z,17.93
2023-04-12T10:22:15.568Z,17.13
2023-04-12T10:24:44.432Z,18.07
2023-04-12T10:27:15.449Z,16.40
2023-04-12T10:29:43.507Z,15.93
2023-04-12T10:32:22.968Z,14.60
2023-04-12T10:34:57.388Z,16.17
2023-04-12T10:38:00.146Z,16.37
2023-04-12T10:40:28.829Z,15.90
2023-04-12T10:43:30.161Z,16.27
2023-04-12T10:46:04.114Z,15.50
2023-04-12T10:48:33.496Z,16.03
2023-04-12T10:51:23.604Z,18.63
2023-04-12T10:53:52.858Z,19.23
2023-04-12T10:56:44.974Z,15.37
2023-04-12T10:59:56.957Z,15.07
2023-04-12T11:02:25.650Z,14.07
2023-04-12T11:05:08.804Z,19.13
2023-04-12T11:07:54.988Z,13.33
2023-04-12T11:10:42.969Z,15.13
2023-04-12T11:13:17.658Z,16.03
2023-04-12T11:15:45.829Z,14.30
2023-04-12T11:18:14.223Z,16.90
2023-04-12T11:20:42.780Z,12.67
2023-04-12T11:23:12.586Z,14.93
2023-04-12T11:25:40.935Z,14.10
2023-04-12T11:28:21.139Z,14.77
2023-04-12T11:30:54.531Z,14.47
2023-04-12T11:33:36.967Z,13.27
2023-04-12T11:36:07.321Z,13.93
2023-04-12T11:38:38.229Z,12.70
2023-04-12T11:41:08.947Z,16.13
2023-04-12T11:43:38.902Z,14.47
2023-04-12T11:46:07.394Z,17.37
2023-04-12T11:48:38.481Z,13.83
2023-04-12T11:51:20.443Z,16.30
2023-04-12T11:53:54.087Z,15.07
2023-04-12T11:56:22.407Z,12.97
2023-04-12T11:58:50.903Z,15.47
2023-04-12T12:01:21.356Z,12.07
2023-04-12T12:03:50.404Z,11.37
2023-04-12T12:06:20.044Z,13.20
2023-04-12T12:08:50.893Z,12.87
2023-04-12T12:11:21.510Z,11.87
2023-04-12T12:13:50.938Z,13.37
2023-04-12T12:16:19.803Z,12.77
2023-04-12T12:18:52.770Z,11.80
2023-04-12T12:21:43.691Z,11.97
2023-04-12T12:24:16.656Z,13.13
2023-04-12T12:26:45.226Z,11.47
2023-04-12T12:29:19.485Z,12.23
2023-04-12T12:31:49.164Z,12.67
2023-04-12T12:34:19.566Z,14.43
2023-04-12T12:36:56.872Z,14.93
2023-04-12T12:39:26.427Z,12.93
2023-04-12T12:41:55.864Z,16.33
2023-04-12T12:44:24.302Z,12.60
2023-04-12T12:46:58.717Z,13.30
2023-04-12T12:49:36.013Z,13.73
2023-04-12T12:52:04.203Z,12.60
2023-04-12T12:55:02.407Z,11.63
2023-04-12T12:58:07.532Z,15.43
2023-04-12T13:00:37.395Z,13.53
2023-04-12T13:03:05.879Z,17.87
2023-04-12T13:05:34.527Z,13.53
2023-04-12T13:08:02.980Z,11.13
2023-04-12T13:10:32.896Z,13.80
2023-04-12T13:13:01.605Z,13.67
2023-04-12T13:15:29.860Z,12.83
2023-04-12T13:17:58.161Z,14.90
2023-04-12T13:20:27.363Z,14.73
2023-04-12T13:22:55.565Z,11.57
2023-04-12T13:25:23.835Z,14.40
2023-04-12T13:27:53.952Z,12.73
2023-04-12T13:30:22.395Z,10.63
2023-04-12T13:32:50.639Z,17.37
2023-04-12T13:35:19.014Z,16.73
2023-04-12T13:37:47.163Z,12.23
2023-04-12T13:40:15.855Z,13.60
2023-04-12T13:42:44.238Z,12.90
2023-04-12T13:45:13.977Z,11.97
2023-04-12T13:47:42.099Z,17.40
2023-04-12T13:50:17.139Z,13.60
2023-04-12T13:53:03.572Z,11.83
2023-04-12T13:55:34.391Z,10.60
2023-04-12T13:58:06.404Z,12.20
2023-04-12T14:00:35.968Z,13.23
2023-04-12T14:03:04.274Z,14.10
2023-04-12T14:05:42.267Z,15.13
2023-04-12T14:08:29.992Z,13.67
2023-04-12T14:11:56.614Z,13.23
2023-04-12T14:14:39.737Z,14.27
2023-04-12T14:17:34.099Z,13.80
2023-04-12T14:21:32.058Z,11.57
2023-04-12T14:23:56.747Z,14.20
2023-04-12T14:26:29.682Z,14.03
2023-04-12T14:29:11.159Z,15.13
2023-04-12T14:31:41.951Z,16.60
2023-04-12T14:34:11.629Z,14.93
2023-04-12T14:36:39.779Z,13.63
2023-04-12T14:39:26.983Z,14.40
2023-04-12T14:41:55.105Z,18.27
2023-04-12T14:44:25.985Z,17.27
2023-04-12T14:46:54.663Z,15.70
2023-04-12T14:49:24.365Z,16.27
2023-04-12T14:55:08.298Z,16.93
2023-04-12T14:57:36.648Z,16.47
2023-04-12T15:00:12.440Z,16.83
2023-04-12T15:02:41.759Z,15.13
2023-04-12T15:05:11.935Z,16.93
2023-04-12T15:07:40.513Z,16.30
2023-04-12T15:10:09.693Z,16.67
2023-04-12T15:12:37.796Z,18.23
2023-04-12T15:15:07.359Z,14.93
2023-04-12T15:17:39.441Z,15.13
2023-04-12T15:20:12.967Z,15.57
2023-04-12T15:22:46.791Z,15.87
2023-04-12T15:25:19.740Z,16.40
2023-04-12T15:27:48.069Z,21.77
2023-04-12T15:30:17.711Z,16.90
2023-04-12T15:33:05.220Z,16.83
2023-04-12T15:35:36.801Z,17.83
2023-04-12T15:38:07.062Z,15.30
2023-04-12T15:40:35.503Z,15.57
2023-04-12T15:43:10.584Z,15.03
2023-04-12T15:45:43.059Z,16.33
2023-04-12T15:48:11.887Z,17.60
2023-04-12T15:50:42.336Z,15.73
2023-04-12T15:53:12.716Z,22.53
2023-04-12T15:55:43.799Z,15.97
2023-04-12T15:58:12.373Z,16.07
2023-04-12T16:00:41.099Z,16.93
2023-04-12T16:03:12.950Z,16.10
2023-04-12T16:05:43.970Z,20.03
2023-04-12T16:08:15.327Z,19.33
2023-04-12T16:10:56.650Z,17.40
2023-04-12T16:13:27.576Z,21.57
2023-04-12T16:15:56.566Z,18.03
2023-04-12T16:18:24.901Z,19.13
2023-04-12T16:20:54.021Z,20.57
2023-04-12T16:23:23.648Z,23.07
2023-04-12T16:25:53.844Z,20.67
2023-04-12T16:28:22.621Z,17.47
2023-04-12T16:30:50.957Z,18.80
2023-04-12T16:33:19.134Z,17.70
2023-04-12T16:35:47.405Z,16.70
2023-04-12T16:38:17.693Z,17.27
2023-04-12T16:40:47.321Z,16.73
2023-04-12T16:43:15.498Z,19.30
2023-04-12T16:45:45.705Z,20.57
2023-04-12T16:48:14.423Z,23.60
2023-04-12T16:50:47.326Z,22.83
2023-04-12T16:53:16.751Z,19.83
2023-04-12T16:55:46.604Z,20.03
2023-04-12T16:58:16.616Z,20.37
2023-04-12T17:00:44.880Z,17.43
2023-04-12T17:03:14.097Z,20.83
2023-04-12T17:05:42.306Z,21.77
2023-04-12T17:08:10.526Z,19.90
2023-04-12T17:10:38.763Z,18.57
2023-04-12T17:13:06.887Z,18.33
2023-04-12T17:15:36.515Z,19.53
2023-04-12T17:18:07.308Z,18.30
2023-04-12T17:20:35.605Z,19.57
2023-04-12T17:23:04.582Z,17.37
2023-04-12T17:25:34.811Z,18.60
2023-04-12T17:28:08.072Z,19.57
2023-04-12T17:30:38.002Z,21.30
2023-04-12T17:33:09.261Z,30.87
2023-04-12T17:35:38.008Z,30.53
2023-04-12T17:38:06.436Z,21.53
2023-04-12T17:40:34.704Z,18.97
2023-04-12T17:43:03.505Z,53.53
2023-04-12T17:45:33.867Z,29.90
2023-04-12T17:48:04.185Z,25.43
2023-04-12T17:50:32.840Z,22.30
2023-04-12T17:53:01.817Z,18.47
2023-04-12T17:55:30.208Z,28.13
2023-04-12T17:57:58.455Z,20.07
2023-04-12T18:00:26.722Z,21.50
2023-04-12T18:02:55.528Z,21.83
2023-04-12T18:05:25.203Z,19.40
2023-04-12T18:07:53.344Z,23.30
2023-04-12T18:10:23.221Z,19.63
2023-04-12T18:12:51.452Z,23.90
2023-04-12T18:15:19.959Z,23.00
2023-04-12T18:17:48.242Z,74.30
2023-04-12T18:20:17.170Z,56.33
2023-04-12T18:22:46.831Z,24.13
2023-04-12T18:25:15.071Z,24.03
2023-04-12T18:27:43.283Z,24.67
2023-04-12T18:30:12.062Z,24.77
2023-04-12T18:32:40.327Z,24.27
2023-04-12T18:35:09.421Z,26.53
2023-04-12T18:37:38.069Z,31.30
2023-04-12T18:40:08.596Z,32.77
2023-04-12T18:42:36.922Z,28.77
2023-04-12T18:45:05.996Z,31.70
2023-04-12T18:47:34.257Z,28.97
2023-04-12T18:50:02.513Z,24.83
2023-04-12T18:52:30.834Z,24.90
2023-04-12T18:54:59.040Z,29.30
2023-04-12T18:57:29.090Z,27.37
2023-04-12T18:59:57.392Z,30.73
2023-04-12T19:02:25.783Z,29.43
2023-04-12T19:04:54.240Z,33.47
2023-04-12T19:07:22.568Z,37.40
2023-04-12T19:09:50.739Z,35.07
2023-04-12T19:12:18.940Z,37.53
2023-04-12T19:14:48.522Z,37.70
2023-04-12T19:17:16.666Z,37.80
2023-04-12T19:20:24.967Z,41.60
2023-04-12T19:22:53.435Z,52.30
2023-04-12T19:25:21.849Z,46.03
2023-04-12T19:27:49.941Z,39.50
2023-04-12T19:30:21.300Z,44.40
2023-04-12T19:32:49.478Z,42.27
2023-04-12T19:35:17.783Z,41.03
2023-04-12T19:37:45.877Z,43.47
2023-04-12T19:40:14.021Z,53.03
2023-04-12T19:42:42.770Z,55.03
2023-04-12T19:45:11.002Z,61.90
2023-04-12T19:47:44.733Z,64.10
2023-04-12T19:50:14.948Z,57.10
2023-04-12T19:52:43.168Z,53.47
2023-04-12T19:55:12.233Z,47.80
2023-04-12T19:57:41.685Z,48.47
2023-04-12T20:00:12.978Z,43.47
2023-04-12T20:02:42.554Z,41.23
2023-04-12T20:05:11.181Z,42.57
2023-04-12T20:07:39.894Z,43.33
2023-04-12T20:10:10.285Z,41.47
2023-04-12T20:12:39.072Z,42.87
2023-04-12T20:15:08.971Z,38.50
2023-04-12T20:17:37.096Z,38.47
2023-04-12T20:20:10.650Z,37.10
2023-04-12T20:22:38.704Z,37.23
2023-04-12T20:25:07.176Z,36.33
2023-04-12T20:27:36.551Z,35.30
2023-04-12T20:30:05.507Z,37.43
2023-04-12T20:32:34.389Z,35.63
2023-04-12T20:35:03.657Z,35.93
2023-04-12T20:37:33.826Z,36.00
2023-04-12T20:40:06.070Z,38.03
2023-04-12T20:42:34.075Z,39.10
2023-04-12T20:45:02.104Z,39.13
2023-04-12T20:47:30.098Z,43.93
2023-04-12T20:49:58.148Z,46.37
2023-04-12T20:52:26.166Z,50.90
2023-04-12T20:54:57.139Z,43.80
2023-04-12T20:57:25.526Z,47.70
2023-04-12T20:59:53.458Z,42.17
2023-04-12T21:02:21.584Z,39.93
2023-04-12T21:04:50.716Z,40.67
2023-04-12T21:07:20.212Z,45.43
2023-04-12T21:09:48.132Z,42.97
2023-04-12T21:12:18.241Z,43.47
2023-04-12T21:14:50.212Z,41.47
2023-04-12T21:17:22.281Z,41.57
2023-04-12T21:19:51.058Z,44.47
2023-04-12T21:22:20.403Z,44.20
2023-04-12T21:24:48.777Z,48.40
2023-04-12T21:27:18.048Z,48.47
2023-04-12T21:29:47.254Z,41.83
2023-04-12T21:32:15.161Z,44.70
2023-04-12T21:34:43.294Z,46.37
2023-04-12T21:37:11.247Z,39.73
2023-04-12T21:39:39.892Z,35.83
2023-04-12T21:42:07.824Z,39.77
2023-04-12T21:44:38.863Z,37.67
2023-04-12T21:47:06.818Z,40.33
2023-04-12T21:49:35.280Z,43.07
2023-04-12T21:52:03.171Z,52.57
2023-04-12T21:54:33.275Z,49.80
2023-04-12T21:57:02.134Z,51.80
2023-04-12T21:59:30.225Z,51.43
2023-04-12T22:01:59.562Z,49.77
2023-04-12T22:04:27.513Z,54.33
2023-04-12T22:06:56.618Z,48.30
2023-04-12T22:09:24.698Z,43.53
2023-04-12T22:11:53.845Z,43.20
2023-04-12T22:14:21.779Z,38.07
2023-04-12T22:16:52.084Z,41.67
2023-04-12T22:19:21.462Z,43.67
2023-04-12T22:21:49.365Z,42.50
2023-04-12T22:24:17.335Z,44.43
2023-04-12T22:26:45.247Z,43.80
2023-04-12T22:29:13.323Z,41.90
2023-04-12T22:31:43.468Z,50.63
2023-04-12T22:34:11.445Z,44.37
2023-04-12T22:36:42.319Z,43.93
2023-04-12T22:39:11.336Z,40.17
2023-04-12T22:41:39.236Z,38.27
2023-04-12T22:44:09.127Z,39.97
2023-04-12T22:46:38.722Z,40.87
2023-04-12T22:49:07.198Z,43.77
2023-04-12T22:51:35.452Z,40.17
2023-04-12T22:54:06.226Z,39.13
2023-04-12T22:56:34.455Z,37.60
2023-04-12T22:59:02.619Z,36.40
2023-04-12T23:01:30.551Z,37.90
2023-04-12T23:04:01.019Z,37.67
2023-04-12T23:06:29.853Z,43.70
2023-04-12T23:08:58.790Z,44.30
2023-04-12T23:11:29.005Z,42.37
2023-04-12T23:13:57.169Z,42.37
2023-04-12T23:16:25.635Z,43.97
2023-04-12T23:18:53.630Z,42.83
2023-04-12T23:21:21.576Z,38.83
2023-04-12T23:23:49.611Z,40.50
2023-04-12T23:26:18.224Z,45.70
2023-04-12T23:28:47.724Z,38.33
2023-04-12T23:31:15.953Z,42.30
2023-04-12T23:33:44.100Z,40.87
2023-04-12T23:36:13.022Z,38.93
2023-04-12T23:38:44.245Z,37.80
2023-04-12T23:41:12.672Z,39.73
2023-04-12T23:43:40.884Z,42.03
2023-04-12T23:46:10.633Z,43.90
2023-04-12T23:48:38.648Z,38.47
2023-04-12T23:51:07.150Z,39.40
2023-04-12T23:53:35.203Z,38.73
2023-04-12T23:56:03.187Z,32.13
2023-04-12T23:58:31.121Z,36.73
